sensor_id;sensor_type;location;lat;lon;timestamp;temperature;humidity
1155;DHT22;566;48.414;9.118;2023-01-25T00:01:25;0.80;67.50
1155;DHT22;566;48.414;9.118;2023-01-25T00:03:51;0.80;67.50
1155;DHT22;566;48.414;9.118;2023-01-25T00:06:16;0.80;67.70
1155;DHT22;566;48.414;9.118;2023-01-25T00:08:42;0.70;67.70
1155;DHT22;566;48.414;9.118;2023-01-25T00:11:10;0.70;67.70
1155;DHT22;566;48.414;9.118;2023-01-25T00:13:35;0.70;67.60
1155;DHT22;566;48.414;9.118;2023-01-25T00:16:04;0.80;67.60
1155;DHT22;566;48.414;9.118;2023-01-25T00:18:30;0.70;67.50
1155;DHT22;566;48.414;9.118;2023-01-25T00:20:56;0.80;67.30
1155;DHT22;566;48.414;9.118;2023-01-25T00:23:21;0.80;67.70
1155;DHT22;566;48.414;9.118;2023-01-25T00:25:47;0.80;67.60
1155;DHT22;566;48.414;9.118;2023-01-25T00:28:12;0.70;67.80
1155;DHT22;566;48.414;9.118;2023-01-25T00:30:38;0.70;67.70
1155;DHT22;566;48.414;9.118;2023-01-25T00:35:43;0.80;67.70
1155;DHT22;566;48.414;9.118;2023-01-25T00:38:26;0.70;68.10
1155;DHT22;566;48.414;9.118;2023-01-25T00:40:52;0.70;68.00
1155;DHT22;566;48.414;9.118;2023-01-25T00:43:18;0.70;67.80
1155;DHT22;566;48.414;9.118;2023-01-25T00:45:43;0.70;67.90
1155;DHT22;566;48.414;9.118;2023-01-25T00:48:10;0.70;67.60
1155;DHT22;566;48.414;9.118;2023-01-25T00:50:38;0.70;67.80
1155;DHT22;566;48.414;9.118;2023-01-25T00:53:03;0.70;68.00
1155;DHT22;566;48.414;9.118;2023-01-25T00:55:29;0.70;67.80
1155;DHT22;566;48.414;9.118;2023-01-25T00:57:55;0.70;67.60
1155;DHT22;566;48.414;9.118;2023-01-25T01:00:20;0.70;67.60
1155;DHT22;566;48.414;9.118;2023-01-25T01:02:49;0.70;68.10
1155;DHT22;566;48.414;9.118;2023-01-25T01:05:14;0.70;68.00
1155;DHT22;566;48.414;9.118;2023-01-25T01:07:40;0.70;68.10
1155;DHT22;566;48.414;9.118;2023-01-25T01:10:06;0.70;68.10
1155;DHT22;566;48.414;9.118;2023-01-25T01:12:35;0.70;67.90
1155;DHT22;566;48.414;9.118;2023-01-25T01:15:00;0.70;68.30
1155;DHT22;566;48.414;9.118;2023-01-25T01:17:26;0.70;68.60
1155;DHT22;566;48.414;9.118;2023-01-25T01:19:52;0.80;68.60
1155;DHT22;566;48.414;9.118;2023-01-25T01:22:17;0.80;68.70
1155;DHT22;566;48.414;9.118;2023-01-25T01:24:43;0.80;69.50
1155;DHT22;566;48.414;9.118;2023-01-25T01:27:08;0.80;70.30
1155;DHT22;566;48.414;9.118;2023-01-25T01:29:34;0.80;70.10
1155;DHT22;566;48.414;9.118;2023-01-25T01:31:59;0.80;70.30
1155;DHT22;566;48.414;9.118;2023-01-25T01:34:25;0.80;70.70
1155;DHT22;566;48.414;9.118;2023-01-25T01:36:51;0.80;71.40
1155;DHT22;566;48.414;9.118;2023-01-25T01:39:16;0.80;70.80
1155;DHT22;566;48.414;9.118;2023-01-25T01:41:42;0.90;71.10
1155;DHT22;566;48.414;9.118;2023-01-25T01:44:44;0.80;71.70
1155;DHT22;566;48.414;9.118;2023-01-25T01:47:21;0.80;72.40
1155;DHT22;566;48.414;9.118;2023-01-25T01:50:05;0.80;73.20
1155;DHT22;566;48.414;9.118;2023-01-25T01:52:39;0.70;73.60
1155;DHT22;566;48.414;9.118;2023-01-25T01:55:09;0.70;74.10
1155;DHT22;566;48.414;9.118;2023-01-25T01:57:42;0.70;74.90
1155;DHT22;566;48.414;9.118;2023-01-25T02:00:18;0.70;76.30
1155;DHT22;566;48.414;9.118;2023-01-25T02:02:48;0.70;76.50
1155;DHT22;566;48.414;9.118;2023-01-25T02:05:25;0.70;76.40
1155;DHT22;566;48.414;9.118;2023-01-25T02:07:53;0.80;77.80
1155;DHT22;566;48.414;9.118;2023-01-25T02:10:20;0.70;78.60
1155;DHT22;566;48.414;9.118;2023-01-25T02:12:47;0.70;77.90
1155;DHT22;566;48.414;9.118;2023-01-25T02:15:13;0.80;78.30
1155;DHT22;566;48.414;9.118;2023-01-25T02:17:40;0.80;78.90
1155;DHT22;566;48.414;9.118;2023-01-25T02:22:52;0.80;78.70
1155;DHT22;566;48.414;9.118;2023-01-25T02:25:19;0.80;80.30
1155;DHT22;566;48.414;9.118;2023-01-25T02:27:50;0.80;80.20
1155;DHT22;566;48.414;9.118;2023-01-25T02:30:17;0.80;80.50
1155;DHT22;566;48.414;9.118;2023-01-25T02:32:43;0.80;80.40
1155;DHT22;566;48.414;9.118;2023-01-25T02:35:21;0.70;80.50
1155;DHT22;566;48.414;9.118;2023-01-25T02:37:50;0.80;80.60
1155;DHT22;566;48.414;9.118;2023-01-25T02:40:17;0.80;81.60
1155;DHT22;566;48.414;9.118;2023-01-25T02:42:43;0.80;82.80
1155;DHT22;566;48.414;9.118;2023-01-25T02:45:16;0.80;83.30
1155;DHT22;566;48.414;9.118;2023-01-25T02:47:43;0.80;83.20
1155;DHT22;566;48.414;9.118;2023-01-25T02:50:09;0.70;83.00
1155;DHT22;566;48.414;9.118;2023-01-25T02:52:35;0.80;83.20
1155;DHT22;566;48.414;9.118;2023-01-25T02:55:00;0.70;82.60
1155;DHT22;566;48.414;9.118;2023-01-25T02:57:26;0.80;82.20
1155;DHT22;566;48.414;9.118;2023-01-25T02:59:51;0.80;83.20
1155;DHT22;566;48.414;9.118;2023-01-25T03:02:17;0.80;84.70
1155;DHT22;566;48.414;9.118;2023-01-25T03:04:42;0.70;84.60
1155;DHT22;566;48.414;9.118;2023-01-25T03:07:08;0.70;83.90
1155;DHT22;566;48.414;9.118;2023-01-25T03:09:34;0.70;83.50
1155;DHT22;566;48.414;9.118;2023-01-25T03:11:59;0.70;83.80
1155;DHT22;566;48.414;9.118;2023-01-25T03:14:25;0.70;82.80
1155;DHT22;566;48.414;9.118;2023-01-25T03:16:50;0.70;83.70
1155;DHT22;566;48.414;9.118;2023-01-25T03:19:16;0.70;84.60
1155;DHT22;566;48.414;9.118;2023-01-25T03:21:41;0.70;83.50
1155;DHT22;566;48.414;9.118;2023-01-25T03:24:08;0.70;84.00
1155;DHT22;566;48.414;9.118;2023-01-25T03:26:34;0.70;83.70
1155;DHT22;566;48.414;9.118;2023-01-25T03:29:20;0.70;84.80
1155;DHT22;566;48.414;9.118;2023-01-25T03:31:46;0.70;83.70
1155;DHT22;566;48.414;9.118;2023-01-25T03:34:11;0.70;84.00
1155;DHT22;566;48.414;9.118;2023-01-25T03:36:37;0.70;83.60
1155;DHT22;566;48.414;9.118;2023-01-25T03:39:03;0.70;83.40
1155;DHT22;566;48.414;9.118;2023-01-25T03:41:28;0.70;82.80
1155;DHT22;566;48.414;9.118;2023-01-25T03:43:54;0.70;82.80
1155;DHT22;566;48.414;9.118;2023-01-25T03:46:19;0.70;82.10
1155;DHT22;566;48.414;9.118;2023-01-25T03:48:45;0.70;82.40
1155;DHT22;566;48.414;9.118;2023-01-25T03:51:11;0.70;82.30
1155;DHT22;566;48.414;9.118;2023-01-25T03:53:36;0.70;82.00
1155;DHT22;566;48.414;9.118;2023-01-25T03:56:04;0.70;82.60
1155;DHT22;566;48.414;9.118;2023-01-25T03:58:34;0.70;81.80
1155;DHT22;566;48.414;9.118;2023-01-25T04:01:00;0.60;82.40
1155;DHT22;566;48.414;9.118;2023-01-25T04:03:27;0.70;82.10
1155;DHT22;566;48.414;9.118;2023-01-25T04:05:56;0.60;82.70
1155;DHT22;566;48.414;9.118;2023-01-25T04:08:23;0.60;82.60
1155;DHT22;566;48.414;9.118;2023-01-25T04:11:10;0.60;82.00
1155;DHT22;566;48.414;9.118;2023-01-25T04:13:36;0.60;83.80
1155;DHT22;566;48.414;9.118;2023-01-25T04:16:03;0.60;83.90
1155;DHT22;566;48.414;9.118;2023-01-25T04:18:30;0.60;84.80
1155;DHT22;566;48.414;9.118;2023-01-25T04:20:56;0.50;85.00
1155;DHT22;566;48.414;9.118;2023-01-25T04:23:23;0.50;85.30
1155;DHT22;566;48.414;9.118;2023-01-25T04:25:53;0.50;85.50
1155;DHT22;566;48.414;9.118;2023-01-25T04:28:19;0.50;85.00
1155;DHT22;566;48.414;9.118;2023-01-25T04:30:45;0.50;84.60
1155;DHT22;566;48.414;9.118;2023-01-25T04:33:11;0.50;84.70
1155;DHT22;566;48.414;9.118;2023-01-25T04:35:40;0.50;85.30
1155;DHT22;566;48.414;9.118;2023-01-25T04:38:06;0.50;85.70
1155;DHT22;566;48.414;9.118;2023-01-25T04:40:32;0.60;86.20
1155;DHT22;566;48.414;9.118;2023-01-25T04:42:57;0.60;86.70
1155;DHT22;566;48.414;9.118;2023-01-25T04:45:24;0.60;87.40
1155;DHT22;566;48.414;9.118;2023-01-25T04:47:58;0.50;86.90
1155;DHT22;566;48.414;9.118;2023-01-25T04:50:24;0.50;87.10
1155;DHT22;566;48.414;9.118;2023-01-25T04:52:49;0.50;88.00
1155;DHT22;566;48.414;9.118;2023-01-25T04:55:18;0.50;87.10
1155;DHT22;566;48.414;9.118;2023-01-25T04:57:44;0.50;88.20
1155;DHT22;566;48.414;9.118;2023-01-25T05:00:10;0.50;87.60
1155;DHT22;566;48.414;9.118;2023-01-25T05:02:36;0.50;87.90
1155;DHT22;566;48.414;9.118;2023-01-25T05:05:02;0.40;87.70
1155;DHT22;566;48.414;9.118;2023-01-25T05:07:28;0.40;87.90
1155;DHT22;566;48.414;9.118;2023-01-25T05:09:53;0.40;87.80
1155;DHT22;566;48.414;9.118;2023-01-25T05:12:19;0.40;88.60
1155;DHT22;566;48.414;9.118;2023-01-25T05:14:45;0.40;88.20
1155;DHT22;566;48.414;9.118;2023-01-25T05:17:10;0.40;88.10
1155;DHT22;566;48.414;9.118;2023-01-25T05:19:36;0.30;87.80
1155;DHT22;566;48.414;9.118;2023-01-25T05:22:02;0.40;86.90
1155;DHT22;566;48.414;9.118;2023-01-25T05:24:33;0.30;87.00
1155;DHT22;566;48.414;9.118;2023-01-25T05:26:59;0.40;87.50
1155;DHT22;566;48.414;9.118;2023-01-25T05:29:32;0.40;87.70
1155;DHT22;566;48.414;9.118;2023-01-25T05:32:01;0.40;87.10
1155;DHT22;566;48.414;9.118;2023-01-25T05:34:27;0.40;87.30
1155;DHT22;566;48.414;9.118;2023-01-25T05:36:53;0.30;86.70
1155;DHT22;566;48.414;9.118;2023-01-25T05:39:19;0.40;85.80
1155;DHT22;566;48.414;9.118;2023-01-25T05:41:44;0.40;86.90
1155;DHT22;566;48.414;9.118;2023-01-25T05:44:10;0.40;86.30
1155;DHT22;566;48.414;9.118;2023-01-25T05:46:35;0.50;86.30
1155;DHT22;566;48.414;9.118;2023-01-25T05:49:01;0.50;86.70
1155;DHT22;566;48.414;9.118;2023-01-25T05:51:26;0.50;88.40
1155;DHT22;566;48.414;9.118;2023-01-25T05:53:55;0.50;88.00
1155;DHT22;566;48.414;9.118;2023-01-25T05:56:21;0.50;87.40
1155;DHT22;566;48.414;9.118;2023-01-25T05:58:51;0.60;88.20
1155;DHT22;566;48.414;9.118;2023-01-25T06:01:16;0.50;89.10
1155;DHT22;566;48.414;9.118;2023-01-25T06:03:42;0.60;89.20
1155;DHT22;566;48.414;9.118;2023-01-25T06:06:07;0.50;90.20
1155;DHT22;566;48.414;9.118;2023-01-25T06:08:33;0.50;90.40
1155;DHT22;566;48.414;9.118;2023-01-25T06:11:05;0.40;89.90
1155;DHT22;566;48.414;9.118;2023-01-25T06:13:31;0.40;89.20
1155;DHT22;566;48.414;9.118;2023-01-25T06:15:56;0.50;89.90
1155;DHT22;566;48.414;9.118;2023-01-25T06:18:22;0.50;90.20
1155;DHT22;566;48.414;9.118;2023-01-25T06:20:54;0.40;90.40
1155;DHT22;566;48.414;9.118;2023-01-25T06:23:20;0.40;89.90
1155;DHT22;566;48.414;9.118;2023-01-25T06:25:45;0.40;89.90
1155;DHT22;566;48.414;9.118;2023-01-25T06:28:11;0.40;90.00
1155;DHT22;566;48.414;9.118;2023-01-25T06:30:37;0.50;90.00
1155;DHT22;566;48.414;9.118;2023-01-25T06:33:02;0.50;89.80
1155;DHT22;566;48.414;9.118;2023-01-25T06:35:30;0.50;89.10
1155;DHT22;566;48.414;9.118;2023-01-25T06:37:57;0.50;90.30
1155;DHT22;566;48.414;9.118;2023-01-25T06:40:24;0.50;89.80
1155;DHT22;566;48.414;9.118;2023-01-25T06:42:50;0.50;90.30
1155;DHT22;566;48.414;9.118;2023-01-25T06:45:15;0.50;90.40
1155;DHT22;566;48.414;9.118;2023-01-25T06:47:41;0.50;89.90
1155;DHT22;566;48.414;9.118;2023-01-25T06:50:08;0.50;89.90
1155;DHT22;566;48.414;9.118;2023-01-25T06:52:34;0.40;89.80
1155;DHT22;566;48.414;9.118;2023-01-25T06:55:05;0.50;89.00
1155;DHT22;566;48.414;9.118;2023-01-25T06:57:32;0.50;90.20
1155;DHT22;566;48.414;9.118;2023-01-25T06:59:59;0.50;89.90
1155;DHT22;566;48.414;9.118;2023-01-25T07:02:25;0.50;89.60
1155;DHT22;566;48.414;9.118;2023-01-25T07:04:50;0.60;88.20
1155;DHT22;566;48.414;9.118;2023-01-25T07:07:16;0.60;90.00
1155;DHT22;566;48.414;9.118;2023-01-25T07:09:41;0.60;89.70
1155;DHT22;566;48.414;9.118;2023-01-25T07:12:07;0.50;90.40
1155;DHT22;566;48.414;9.118;2023-01-25T07:14:33;0.50;91.00
1155;DHT22;566;48.414;9.118;2023-01-25T07:16:58;0.40;89.80
1155;DHT22;566;48.414;9.118;2023-01-25T07:19:24;0.40;89.90
1155;DHT22;566;48.414;9.118;2023-01-25T07:21:50;0.50;88.80
1155;DHT22;566;48.414;9.118;2023-01-25T07:24:17;0.50;89.60
1155;DHT22;566;48.414;9.118;2023-01-25T07:26:44;0.60;89.00
1155;DHT22;566;48.414;9.118;2023-01-25T07:29:14;0.60;88.30
1155;DHT22;566;48.414;9.118;2023-01-25T07:31:40;0.70;89.80
1155;DHT22;566;48.414;9.118;2023-01-25T07:34:08;0.70;90.80
1155;DHT22;566;48.414;9.118;2023-01-25T07:36:38;0.70;90.60
1155;DHT22;566;48.414;9.118;2023-01-25T07:39:04;0.80;91.70
1155;DHT22;566;48.414;9.118;2023-01-25T07:41:32;0.80;93.20
1155;DHT22;566;48.414;9.118;2023-01-25T07:43:58;0.70;93.30
1155;DHT22;566;48.414;9.118;2023-01-25T07:46:23;0.80;92.00
1155;DHT22;566;48.414;9.118;2023-01-25T07:48:51;0.80;91.40
1155;DHT22;566;48.414;9.118;2023-01-25T07:51:19;0.80;92.00
1155;DHT22;566;48.414;9.118;2023-01-25T07:53:50;0.90;92.40
1155;DHT22;566;48.414;9.118;2023-01-25T07:56:16;0.90;92.90
1155;DHT22;566;48.414;9.118;2023-01-25T07:58:43;1.00;93.00
1155;DHT22;566;48.414;9.118;2023-01-25T08:01:11;1.00;93.20
1155;DHT22;566;48.414;9.118;2023-01-25T08:03:38;1.10;93.60
1155;DHT22;566;48.414;9.118;2023-01-25T08:06:04;1.20;94.30
1155;DHT22;566;48.414;9.118;2023-01-25T08:08:31;1.20;94.60
1155;DHT22;566;48.414;9.118;2023-01-25T08:11:00;1.30;94.00
1155;DHT22;566;48.414;9.118;2023-01-25T08:13:25;1.30;95.60
1155;DHT22;566;48.414;9.118;2023-01-25T08:15:54;1.30;97.20
1155;DHT22;566;48.414;9.118;2023-01-25T08:18:20;1.20;97.30
1155;DHT22;566;48.414;9.118;2023-01-25T08:20:46;1.20;96.70
1155;DHT22;566;48.414;9.118;2023-01-25T08:23:12;1.20;96.10
1155;DHT22;566;48.414;9.118;2023-01-25T08:25:37;1.30;96.80
1155;DHT22;566;48.414;9.118;2023-01-25T08:28:04;1.30;96.40
1155;DHT22;566;48.414;9.118;2023-01-25T08:30:29;1.40;97.20
1155;DHT22;566;48.414;9.118;2023-01-25T08:32:55;1.40;98.00
1155;DHT22;566;48.414;9.118;2023-01-25T08:35:20;1.30;98.00
1155;DHT22;566;48.414;9.118;2023-01-25T08:37:46;1.40;98.00
1155;DHT22;566;48.414;9.118;2023-01-25T08:40:12;1.50;98.00
1155;DHT22;566;48.414;9.118;2023-01-25T08:42:38;1.30;98.00
1155;DHT22;566;48.414;9.118;2023-01-25T08:45:04;1.30;98.00
1155;DHT22;566;48.414;9.118;2023-01-25T08:47:30;1.30;98.00
1155;DHT22;566;48.414;9.118;2023-01-25T08:49:55;1.30;98.00
1155;DHT22;566;48.414;9.118;2023-01-25T08:52:21;1.40;98.00
1155;DHT22;566;48.414;9.118;2023-01-25T08:54:47;1.50;98.00
1155;DHT22;566;48.414;9.118;2023-01-25T08:57:12;1.50;98.00
1155;DHT22;566;48.414;9.118;2023-01-25T08:59:38;1.60;98.00
1155;DHT22;566;48.414;9.118;2023-01-25T09:02:03;1.60;98.00
1155;DHT22;566;48.414;9.118;2023-01-25T09:04:29;1.60;98.00
1155;DHT22;566;48.414;9.118;2023-01-25T09:06:55;1.70;98.00
1155;DHT22;566;48.414;9.118;2023-01-25T09:09:20;1.70;98.00
1155;DHT22;566;48.414;9.118;2023-01-25T09:11:49;1.70;98.00
1155;DHT22;566;48.414;9.118;2023-01-25T09:14:15;1.80;98.00
1155;DHT22;566;48.414;9.118;2023-01-25T09:16:40;1.80;98.00
1155;DHT22;566;48.414;9.118;2023-01-25T09:19:06;1.90;98.00
1155;DHT22;566;48.414;9.118;2023-01-25T09:21:32;2.00;98.00
1155;DHT22;566;48.414;9.118;2023-01-25T09:23:58;2.00;98.00
1155;DHT22;566;48.414;9.118;2023-01-25T09:26:24;2.00;98.00
1155;DHT22;566;48.414;9.118;2023-01-25T09:28:51;2.10;98.00
1155;DHT22;566;48.414;9.118;2023-01-25T09:31:18;2.10;98.00
1155;DHT22;566;48.414;9.118;2023-01-25T09:33:44;2.00;98.00
1155;DHT22;566;48.414;9.118;2023-01-25T09:36:10;2.00;98.00
1155;DHT22;566;48.414;9.118;2023-01-25T09:38:36;1.80;98.00
1155;DHT22;566;48.414;9.118;2023-01-25T09:46:52;1.70;98.00
1155;DHT22;566;48.414;9.118;2023-01-25T09:54:46;1.70;98.00
1155;DHT22;566;48.414;9.118;2023-01-25T09:57:27;1.60;98.00
1155;DHT22;566;48.414;9.118;2023-01-25T09:59:55;1.60;98.00
1155;DHT22;566;48.414;9.118;2023-01-25T10:05:18;1.60;98.00
1155;DHT22;566;48.414;9.118;2023-01-25T10:10:54;1.80;98.00
1155;DHT22;566;48.414;9.118;2023-01-25T10:13:23;1.80;98.00
1155;DHT22;566;48.414;9.118;2023-01-25T10:15:52;1.80;98.00
1155;DHT22;566;48.414;9.118;2023-01-25T10:18:30;1.90;98.00
1155;DHT22;566;48.414;9.118;2023-01-25T10:21:09;2.00;98.00
1155;DHT22;566;48.414;9.118;2023-01-25T10:26:51;2.10;98.00
1155;DHT22;566;48.414;9.118;2023-01-25T10:29:21;2.40;98.00
1155;DHT22;566;48.414;9.118;2023-01-25T10:31:49;2.30;98.00
1155;DHT22;566;48.414;9.118;2023-01-25T10:34:27;2.30;98.00
1155;DHT22;566;48.414;9.118;2023-01-25T10:37:02;2.10;98.00
1155;DHT22;566;48.414;9.118;2023-01-25T10:39:29;2.20;98.00
1155;DHT22;566;48.414;9.118;2023-01-25T10:42:04;2.20;98.00
1155;DHT22;566;48.414;9.118;2023-01-25T10:44:34;2.30;98.00
1155;DHT22;566;48.414;9.118;2023-01-25T10:49:47;2.30;98.00
1155;DHT22;566;48.414;9.118;2023-01-25T10:52:17;2.50;98.00
1155;DHT22;566;48.414;9.118;2023-01-25T10:54:44;2.40;98.00
1155;DHT22;566;48.414;9.118;2023-01-25T10:57:18;2.60;98.00
1155;DHT22;566;48.414;9.118;2023-01-25T10:59:48;2.70;98.00
1155;DHT22;566;48.414;9.118;2023-01-25T11:07:44;2.10;98.00
1155;DHT22;566;48.414;9.118;2023-01-25T11:15:38;2.40;98.00
1155;DHT22;566;48.414;9.118;2023-01-25T11:18:05;2.30;98.00
1155;DHT22;566;48.414;9.118;2023-01-25T11:20:31;2.20;98.00
1155;DHT22;566;48.414;9.118;2023-01-25T11:22:58;2.20;98.00
1155;DHT22;566;48.414;9.118;2023-01-25T11:25:25;2.30;98.00
1155;DHT22;566;48.414;9.118;2023-01-25T11:27:50;2.30;98.00
1155;DHT22;566;48.414;9.118;2023-01-25T11:30:17;2.40;98.00
1155;DHT22;566;48.414;9.118;2023-01-25T11:32:46;2.50;98.00
1155;DHT22;566;48.414;9.118;2023-01-25T11:35:14;2.40;98.00
1155;DHT22;566;48.414;9.118;2023-01-25T11:37:52;2.20;98.00
1155;DHT22;566;48.414;9.118;2023-01-25T11:40:38;2.10;98.00
1155;DHT22;566;48.414;9.118;2023-01-25T11:46:20;2.10;98.00
1155;DHT22;566;48.414;9.118;2023-01-25T11:51:38;2.20;98.00
1155;DHT22;566;48.414;9.118;2023-01-25T12:05:15;2.40;98.00
1155;DHT22;566;48.414;9.118;2023-01-25T12:08:01;2.20;98.00
1155;DHT22;566;48.414;9.118;2023-01-25T12:10:58;2.10;98.00
1155;DHT22;566;48.414;9.118;2023-01-25T12:24:14;2.10;98.00
1155;DHT22;566;48.414;9.118;2023-01-25T12:29:24;2.10;98.00
1155;DHT22;566;48.414;9.118;2023-01-25T12:32:17;2.30;98.00
1155;DHT22;566;48.414;9.118;2023-01-25T12:34:47;2.20;98.00
1155;DHT22;566;48.414;9.118;2023-01-25T12:37:22;2.10;98.00
1155;DHT22;566;48.414;9.118;2023-01-25T12:40:03;2.00;98.00
1155;DHT22;566;48.414;9.118;2023-01-25T12:42:51;2.00;98.00
1155;DHT22;566;48.414;9.118;2023-01-25T12:45:27;2.10;98.00
1155;DHT22;566;48.414;9.118;2023-01-25T12:50:24;2.10;98.00
1155;DHT22;566;48.414;9.118;2023-01-25T12:52:54;1.90;98.00
1155;DHT22;566;48.414;9.118;2023-01-25T12:55:20;2.00;98.00
1155;DHT22;566;48.414;9.118;2023-01-25T12:58:14;2.10;98.00
1155;DHT22;566;48.414;9.118;2023-01-25T13:09:15;2.10;98.00
1155;DHT22;566;48.414;9.118;2023-01-25T13:11:44;2.20;98.00
1155;DHT22;566;48.414;9.118;2023-01-25T13:16:45;2.40;98.00
1155;DHT22;566;48.414;9.118;2023-01-25T13:21:55;2.30;98.00
1155;DHT22;566;48.414;9.118;2023-01-25T13:24:30;2.30;98.00
1155;DHT22;566;48.414;9.118;2023-01-25T13:27:08;2.40;98.00
1155;DHT22;566;48.414;9.118;2023-01-25T13:29:59;2.20;98.00
1155;DHT22;566;48.414;9.118;2023-01-25T13:37:27;2.30;98.00
1155;DHT22;566;48.414;9.118;2023-01-25T13:42:24;2.10;98.00
1155;DHT22;566;48.414;9.118;2023-01-25T13:44:57;2.00;98.00
1155;DHT22;566;48.414;9.118;2023-01-25T13:47:27;2.00;98.00
1155;DHT22;566;48.414;9.118;2023-01-25T13:49:55;2.00;98.00
1155;DHT22;566;48.414;9.118;2023-01-25T13:52:23;2.00;98.00
1155;DHT22;566;48.414;9.118;2023-01-25T13:54:56;2.00;98.00
1155;DHT22;566;48.414;9.118;2023-01-25T14:02:27;2.10;98.00
1155;DHT22;566;48.414;9.118;2023-01-25T14:04:55;2.10;98.00
1155;DHT22;566;48.414;9.118;2023-01-25T14:07:31;2.00;98.00
1155;DHT22;566;48.414;9.118;2023-01-25T14:10:05;2.00;98.00
1155;DHT22;566;48.414;9.118;2023-01-25T14:12:39;2.00;98.00
1155;DHT22;566;48.414;9.118;2023-01-25T14:15:25;2.00;98.00
1155;DHT22;566;48.414;9.118;2023-01-25T14:18:14;2.10;98.00
1155;DHT22;566;48.414;9.118;2023-01-25T14:20:45;2.10;98.00
1155;DHT22;566;48.414;9.118;2023-01-25T14:23:26;1.80;98.00
1155;DHT22;566;48.414;9.118;2023-01-25T14:25:57;1.50;98.00
1155;DHT22;566;48.414;9.118;2023-01-25T14:28:26;1.40;98.00
1155;DHT22;566;48.414;9.118;2023-01-25T14:30:54;1.60;98.00
1155;DHT22;566;48.414;9.118;2023-01-25T14:33:33;1.60;98.00
1155;DHT22;566;48.414;9.118;2023-01-25T14:36:12;1.60;98.00
1155;DHT22;566;48.414;9.118;2023-01-25T14:38:40;1.70;98.00
1155;DHT22;566;48.414;9.118;2023-01-25T14:41:15;1.60;98.00
1155;DHT22;566;48.414;9.118;2023-01-25T14:43:49;1.60;98.00
1155;DHT22;566;48.414;9.118;2023-01-25T14:46:25;1.70;98.00
1155;DHT22;566;48.414;9.118;2023-01-25T14:48:51;1.70;98.00
1155;DHT22;566;48.414;9.118;2023-01-25T14:51:30;1.70;98.00
1155;DHT22;566;48.414;9.118;2023-01-25T14:54:02;1.60;98.00
1155;DHT22;566;48.414;9.118;2023-01-25T14:56:38;1.70;98.00
1155;DHT22;566;48.414;9.118;2023-01-25T14:59:06;1.70;98.00
1155;DHT22;566;48.414;9.118;2023-01-25T15:01:38;1.70;98.00
1155;DHT22;566;48.414;9.118;2023-01-25T15:04:10;1.60;98.00
1155;DHT22;566;48.414;9.118;2023-01-25T15:06:47;1.50;98.00
1155;DHT22;566;48.414;9.118;2023-01-25T15:09:35;1.60;98.00
1155;DHT22;566;48.414;9.118;2023-01-25T15:12:30;1.50;98.00
1155;DHT22;566;48.414;9.118;2023-01-25T15:14:57;1.40;98.00
1155;DHT22;566;48.414;9.118;2023-01-25T15:17:46;1.40;98.00
1155;DHT22;566;48.414;9.118;2023-01-25T15:22:55;1.30;98.00
1155;DHT22;566;48.414;9.118;2023-01-25T15:25:22;1.20;98.00
1155;DHT22;566;48.414;9.118;2023-01-25T15:27:48;1.20;98.00
1155;DHT22;566;48.414;9.118;2023-01-25T15:30:15;1.20;98.00
1155;DHT22;566;48.414;9.118;2023-01-25T15:32:42;1.20;98.00
1155;DHT22;566;48.414;9.118;2023-01-25T15:35:16;1.20;98.00
1155;DHT22;566;48.414;9.118;2023-01-25T15:37:43;1.10;98.00
1155;DHT22;566;48.414;9.118;2023-01-25T15:40:10;1.10;98.00
1155;DHT22;566;48.414;9.118;2023-01-25T15:42:37;1.00;98.00
1155;DHT22;566;48.414;9.118;2023-01-25T15:45:03;1.00;98.00
1155;DHT22;566;48.414;9.118;2023-01-25T15:47:30;0.90;97.90
1155;DHT22;566;48.414;9.118;2023-01-25T15:49:56;0.90;97.90
1155;DHT22;566;48.414;9.118;2023-01-25T15:52:21;0.80;97.80
1155;DHT22;566;48.414;9.118;2023-01-25T15:54:47;0.70;97.50
1155;DHT22;566;48.414;9.118;2023-01-25T15:57:22;0.70;97.40
1155;DHT22;566;48.414;9.118;2023-01-25T15:59:51;0.70;98.00
1155;DHT22;566;48.414;9.118;2023-01-25T16:02:16;0.60;97.30
1155;DHT22;566;48.414;9.118;2023-01-25T16:04:42;0.50;97.40
1155;DHT22;566;48.414;9.118;2023-01-25T16:07:18;0.50;97.00
1155;DHT22;566;48.414;9.118;2023-01-25T16:09:45;0.50;96.90
1155;DHT22;566;48.414;9.118;2023-01-25T16:12:11;0.50;97.00
1155;DHT22;566;48.414;9.118;2023-01-25T16:14:36;0.50;96.70
1155;DHT22;566;48.414;9.118;2023-01-25T16:17:03;0.50;95.70
1155;DHT22;566;48.414;9.118;2023-01-25T16:19:30;0.50;96.50
1155;DHT22;566;48.414;9.118;2023-01-25T16:21:58;0.40;96.00
1155;DHT22;566;48.414;9.118;2023-01-25T16:24:24;0.30;95.50
1155;DHT22;566;48.414;9.118;2023-01-25T16:26:53;0.30;95.30
1155;DHT22;566;48.414;9.118;2023-01-25T16:29:19;0.30;95.40
1155;DHT22;566;48.414;9.118;2023-01-25T16:31:47;0.30;95.30
1155;DHT22;566;48.414;9.118;2023-01-25T16:34:12;0.20;95.30
1155;DHT22;566;48.414;9.118;2023-01-25T16:36:38;0.20;94.90
1155;DHT22;566;48.414;9.118;2023-01-25T16:39:24;0.20;94.80
1155;DHT22;566;48.414;9.118;2023-01-25T16:41:53;0.10;94.80
1155;DHT22;566;48.414;9.118;2023-01-25T16:44:20;0.10;94.50
1155;DHT22;566;48.414;9.118;2023-01-25T16:46:45;0.10;94.50
1155;DHT22;566;48.414;9.118;2023-01-25T16:49:20;0.10;93.60
1155;DHT22;566;48.414;9.118;2023-01-25T16:51:46;0.20;94.30
1155;DHT22;566;48.414;9.118;2023-01-25T16:54:13;0.20;93.80
1155;DHT22;566;48.414;9.118;2023-01-25T16:56:38;0.10;94.30
1155;DHT22;566;48.414;9.118;2023-01-25T16:59:05;0.10;94.10
1155;DHT22;566;48.414;9.118;2023-01-25T17:01:31;0.00;95.00
1155;DHT22;566;48.414;9.118;2023-01-25T17:03:57;0.00;94.50
1155;DHT22;566;48.414;9.118;2023-01-25T17:06:24;0.00;94.10
1155;DHT22;566;48.414;9.118;2023-01-25T17:08:50;0.00;94.40
1155;DHT22;566;48.414;9.118;2023-01-25T17:11:17;-0.10;94.00
1155;DHT22;566;48.414;9.118;2023-01-25T17:13:53;-0.10;94.10
1155;DHT22;566;48.414;9.118;2023-01-25T17:16:20;-0.10;94.00
1155;DHT22;566;48.414;9.118;2023-01-25T17:18:46;-0.10;93.80
1155;DHT22;566;48.414;9.118;2023-01-25T17:21:14;-0.10;93.50
1155;DHT22;566;48.414;9.118;2023-01-25T17:23:41;-0.10;93.80
1155;DHT22;566;48.414;9.118;2023-01-25T17:26:11;-0.10;94.00
1155;DHT22;566;48.414;9.118;2023-01-25T17:28:36;0.00;93.80
1155;DHT22;566;48.414;9.118;2023-01-25T17:31:02;0.00;94.10
1155;DHT22;566;48.414;9.118;2023-01-25T17:33:28;0.00;94.50
1155;DHT22;566;48.414;9.118;2023-01-25T17:35:54;-0.10;94.80
1155;DHT22;566;48.414;9.118;2023-01-25T17:38:26;-0.10;95.50
1155;DHT22;566;48.414;9.118;2023-01-25T17:40:51;-0.20;95.70
1155;DHT22;566;48.414;9.118;2023-01-25T17:43:17;-0.20;95.10
1155;DHT22;566;48.414;9.118;2023-01-25T17:45:43;-0.20;95.10
1155;DHT22;566;48.414;9.118;2023-01-25T17:48:08;-0.20;94.80
1155;DHT22;566;48.414;9.118;2023-01-25T17:50:35;-0.20;94.30
1155;DHT22;566;48.414;9.118;2023-01-25T17:53:01;-0.20;94.60
1155;DHT22;566;48.414;9.118;2023-01-25T17:55:27;-0.20;93.80
1155;DHT22;566;48.414;9.118;2023-01-25T17:57:54;-0.20;93.60
1155;DHT22;566;48.414;9.118;2023-01-25T18:00:19;-0.20;94.90
1155;DHT22;566;48.414;9.118;2023-01-25T18:02:45;-0.30;94.00
1155;DHT22;566;48.414;9.118;2023-01-25T18:05:11;-0.30;95.70
1155;DHT22;566;48.414;9.118;2023-01-25T18:07:36;-0.50;95.80
1155;DHT22;566;48.414;9.118;2023-01-25T18:10:02;-0.50;95.50
1155;DHT22;566;48.414;9.118;2023-01-25T18:12:28;-0.60;96.20
1155;DHT22;566;48.414;9.118;2023-01-25T18:14:53;-0.60;95.40
1155;DHT22;566;48.414;9.118;2023-01-25T18:17:19;-0.70;93.90
1155;DHT22;566;48.414;9.118;2023-01-25T18:19:44;-0.60;94.60
1155;DHT22;566;48.414;9.118;2023-01-25T18:22:11;-0.70;94.60
1155;DHT22;566;48.414;9.118;2023-01-25T18:24:37;-0.70;94.40